Latest Weather Observations for Shepparton

IDV60801

Issued at 7:05 am EDT Saturday 29 November 2014 (issued every 30 minutes, with the page automatically refreshed every 10 minutes)

About weather observations | Map of weather stations | Latest weather observations for VIC | Other Formats
Station Details ID: 081125 Name: SHEPPARTON AIRPORT Lat: -36.43 Lon: 145.39 Height: 113.9 m
Data from the previous 72 hours. | See also: Recent months at Shepparton
Date/Time
EDT
Temp
°C
App
Temp
°C
Dew
Point
Rel
Hum
%
Delta-T
°C
Wind Press
QNH
hPa
Press
MSL
hPa
Rain
since 9 am
mm
Dir
 
Spd
km/h
Gust
km/h
Spd
kts
Gust
kts
29/07:00am 13.1 11.6 10.5 84 1.4 SSE 9 13 5 7 1015.9 1015.7 0.0
29/06:30am 12.4 10.8 10.3 87 1.1 SSE 9 11 5 6 1015.8 1015.6 0.0
29/06:00am 12.0 10.0 10.1 88 1.0 SSE 11 15 6 8 1015.4 1015.2 0.0
29/05:30am 12.0 10.4 10.1 88 1.0 SSE 9 13 5 7 1014.9 1014.6 0.0
29/05:00am 12.4 10.4 10.3 87 1.1 S 11 15 6 8 1014.9 1014.6 0.0
29/04:30am 12.5 10.9 10.2 86 1.2 SSE 9 11 5 6 1014.6 1014.3 0.0
29/04:00am 13.2 11.3 10.6 84 1.4 S 11 15 6 8 1014.6 1014.3 0.0
29/03:30am 13.3 12.2 10.7 84 1.4 S 7 9 4 5 1014.7 1014.4 0.0
29/03:00am 13.8 12.4 11.0 83 1.5 S 9 11 5 6 1014.8 1014.5 0.0
29/02:30am 13.9 12.4 10.7 81 1.7 S 9 13 5 7 1014.7 1014.4 0.0
29/02:00am 14.8 13.0 11.0 78 2.0 S 11 15 6 8 1014.8 1014.5 0.0
29/01:30am 15.2 13.5 11.2 77 2.1 S 11 13 6 7 1015.0 1014.7 0.0
29/01:00am 15.7 13.6 11.3 75 2.4 S 13 17 7 9 1015.4 1015.2 0.0
29/12:30am 16.7 14.4 11.6 72 2.8 S 15 17 8 9 1015.7 1015.5 0.0
29/12:00am 17.1 13.9 11.4 69 3.1 S 19 26 10 14 1015.7 1015.5 0.0
 
Date/Time
EDT
Temp
°C
App
Temp
°C
Dew
Point
Rel
Hum
%
Delta-T
°C
Wind Press
QNH
hPa
Press
MSL
hPa
Rain
since 9 am
mm
Dir
 
Spd
km/h
Gust
km/h
Spd
kts
Gust
kts
28/11:30pm 17.9 14.8 11.5 66 3.5 S 19 22 10 12 1015.8 1015.6 0.0
28/11:00pm 19.0 15.9 11.6 62 4.1 S 19 28 10 15 1016.1 1015.9 0.0
28/10:30pm 20.6 17.9 11.8 57 4.9 S 17 22 9 12 1016.1 1015.9 0.0
28/10:00pm 21.8 19.3 12.4 55 5.3 S 17 20 9 11 1016.2 1016.0 0.0
28/09:30pm 22.7 20.2 12.3 52 5.9 S 17 20 9 11 1016.0 1015.8 0.0
28/09:00pm 23.4 20.1 10.8 45 7.0 S 19 26 10 14 1015.7 1015.5 0.0
28/08:30pm 24.6 20.3 9.3 38 8.4 S 22 30 12 16 1015.5 1015.3 0.0
28/08:00pm 26.5 24.3 8.0 31 10.0 SSW 9 11 5 6 1015.1 1014.8 0.0
28/07:30pm 28.6 26.2 7.2 26 11.5 S 9 13 5 7 1014.9 1014.6 0.0
28/07:00pm 29.1 27.1 7.1 25 11.8 SE 7 11 4 6 1014.8 1014.5 0.0
28/06:30pm 29.6 27.7 6.9 24 12.2 NE 6 20 3 11 1014.8 1014.5 0.0
28/06:00pm 29.5 26.5 6.2 23 12.4 E 11 17 6 9 1014.9 1014.6 0.0
28/05:30pm 29.6 27.0 6.3 23 12.4 ENE 9 15 5 8 1015.2 1014.9 0.0
28/05:00pm 29.6 27.6 6.9 24 12.2 SE 7 15 4 8 1015.4 1015.2 0.0
28/04:30pm 29.1 26.5 5.9 23 12.3 N 9 15 5 8 1015.6 1015.4 0.0
28/04:00pm 29.3 27.1 7.8 26 11.7 NE 9 15 5 8 1016.1 1015.9 0.0
28/03:30pm 29.2 27.0 7.7 26 11.7 NE 9 15 5 8 1016.6 1016.4 0.0
28/03:00pm 28.4 26.4 7.1 26 11.4 NNW 7 13 4 7 1017.0 1016.8 0.0
28/02:30pm 28.3 26.0 9.1 30 10.7 NW 11 20 6 11 1017.4 1017.2 0.0
28/02:00pm 27.7 26.2 10.4 34 9.8 NE 9 15 5 8 1018.0 1017.8 0.0
28/01:30pm 26.8 25.3 10.5 36 9.2 WSW 9 11 5 6 1018.4 1018.2 0.0
28/01:00pm 26.5 25.0 10.6 37 8.9 E 9 20 5 11 1019.1 1018.9 0.0
28/12:30pm 25.5 24.5 10.9 40 8.2 NNW 7 19 4 10 1019.6 1019.3 0.0
28/12:00pm 25.3 23.6 11.1 41 8.0 N 11 20 6 11 1019.9 1019.6 0.0
28/11:30am 24.1 21.9 10.7 43 7.5 N 13 20 7 11 1020.4 1020.1 0.0
28/11:00am 24.0 20.5 11.0 44 7.3 N 20 24 11 13 1020.8 1020.5 0.0
28/10:30am 22.5 20.7 10.9 48 6.4 E 11 26 6 14 1021.1 1020.8 0.0
28/10:00am 20.8 18.8 10.0 50 5.8 E 11 19 6 10 1021.4 1021.1 0.0
28/09:30am 18.9 17.1 9.4 54 5.0 ESE 9 17 5 9 1021.8 1021.5 0.0
28/09:00am 17.5 14.9 9.4 59 4.2 SSE 13 19 7 10 1022.0 1021.7 0.0
28/08:30am 15.5 12.3 8.5 63 3.6 S 15 19 8 10 1022.1 1021.8 0.0
28/08:00am 13.9 11.1 8.5 70 2.7 S 13 17 7 9 1021.9 1021.6 0.0
28/07:30am 11.9 8.3 8.2 78 1.8 S 17 20 9 11 1021.7 1021.4 0.0
28/07:00am 10.9 8.4 8.0 82 1.4 S 11 17 6 9 1021.2 1020.9 0.0
28/06:30am 10.0 7.9 8.1 88 0.9 S 9 13 5 7 1020.8 1020.5 0.0
28/06:00am 9.3 7.4 7.6 89 0.8 S 7 9 4 5 1020.5 1020.2 0.0
28/05:30am 9.7 7.1 7.8 88 0.9 SSE 11 17 6 9 1020.3 1020.0 0.0
28/05:00am 9.9 7.0 8.0 88 0.9 S 13 17 7 9 1019.9 1019.6 0.0
28/04:30am 10.0 7.4 7.9 87 1.0 SSE 11 13 6 7 1019.5 1019.2 0.0
28/04:00am 10.5 7.9 7.9 84 1.3 S 11 15 6 8 1019.1 1018.9 0.0
28/03:30am 10.7 7.7 7.9 83 1.4 S 13 19 7 10 1018.9 1018.7 0.0
28/03:00am 11.2 8.3 8.1 81 1.5 S 13 17 7 9 1019.0 1018.8 0.0
28/02:30am 11.6 8.7 8.3 80 1.6 S 13 17 7 9 1018.9 1018.7 0.0
28/02:00am 11.9 8.6 8.2 78 1.8 S 15 20 8 11 1019.0 1018.8 0.0
28/01:30am 12.4 10.0 8.5 77 1.9 S 11 17 6 9 1019.4 1019.1 0.0
28/01:00am 12.9 9.8 8.8 76 2.1 S 15 19 8 10 1019.5 1019.2 0.0
28/12:30am 13.4 9.9 8.9 74 2.3 S 17 20 9 11 1019.8 1019.5 0.0
28/12:00am 13.9 10.4 8.9 72 2.5 S 17 22 9 12 1020.0 1019.7 0.0
 
Date/Time
EDT
Temp
°C
App
Temp
°C
Dew
Point
Rel
Hum
%
Delta-T
°C
Wind Press
QNH
hPa
Press
MSL
hPa
Rain
since 9 am
mm
Dir
 
Spd
km/h
Gust
km/h
Spd
kts
Gust
kts
27/11:30pm 14.2 10.7 8.8 70 2.7 S 17 20 9 11 1020.2 1019.9 0.0
27/11:00pm 15.2 11.4 8.9 66 3.2 S 19 24 10 13 1020.0 1019.7 0.0
27/10:30pm 16.0 11.9 8.7 62 3.7 S 20 28 11 15 1020.0 1019.7 0.0
27/10:00pm 16.8 12.7 8.5 58 4.3 S 20 28 11 15 1020.0 1019.7 0.0
27/09:30pm 17.7 12.8 8.3 54 4.8 S 24 32 13 17 1019.8 1019.5 0.0
27/09:00pm 19.1 14.8 7.8 48 5.8 S 20 26 11 14 1019.6 1019.3 0.0
27/08:30pm 20.5 15.7 7.2 42 6.8 S 22 32 12 17 1019.6 1019.3 0.0
27/08:00pm 21.5 16.2 6.6 38 7.6 S 24 33 13 18 1019.3 1019.0 0.0
27/07:30pm 22.9 16.3 6.2 34 8.5 S 30 41 16 22 1019.0 1018.8 0.0
27/07:00pm 24.2 18.3 6.0 31 9.3 S 26 37 14 20 1018.7 1018.5 0.0
27/06:30pm 25.2 18.7 4.9 27 10.3 S 28 39 15 21 1018.6 1018.4 0.0
27/06:00pm 25.6 20.2 4.7 26 10.6 S 22 33 12 18 1018.6 1018.4 0.0
27/05:30pm 26.4 20.6 2.3 21 11.7 SSW 22 30 12 16 1018.6 1018.4 0.0
27/05:00pm 27.0 21.5 2.1 20 12.1 SSW 20 30 11 16 1018.7 1018.5 0.0
27/04:30pm 26.8 20.8 1.3 19 12.2 SSW 22 32 12 17 1018.8 1018.6 0.0
27/04:00pm 26.4 20.0 0.9 19 12.1 S 24 37 13 20 1019.3 1019.0 0.0
27/03:30pm 26.8 21.3 2.0 20 12.1 S 20 35 11 19 1019.3 1019.0 0.0
27/03:00pm 25.8 21.2 1.8 21 11.5 S 15 26 8 14 1019.5 1019.2 0.0
27/02:30pm 26.1 20.2 -2.5 15 12.7 SSE 19 28 10 15 1020.0 1019.7 0.0
27/02:00pm 25.1 19.7 -4.2 14 12.5 S 15 28 8 15 1020.6 1020.3 0.0
27/01:30pm 24.2 19.1 0.5 21 11.0 SSE 17 24 9 13 1020.8 1020.5 0.0
27/01:00pm 24.0 20.8 2.8 25 10.2 SSE 9 19 5 10 1021.2 1020.9 0.0
27/12:30pm 22.7 17.8 2.2 26 9.7 SSE 17 22 9 12 1021.5 1021.2 0.0
27/12:00pm 22.2 17.5 3.3 29 9.1 SSE 17 22 9 12 1021.8 1021.5 0.0
27/11:30am 21.0 16.0 3.7 32 8.3 SSW 19 24 10 13 1022.0 1021.7 0.0
27/11:00am 19.7 14.5 2.6 32 7.9 S 19 26 10 14 1022.1 1021.8 0.0
27/10:30am 19.5 13.8 2.8 33 7.8 SSE 22 26 12 14 1022.4 1022.1 0.0
27/10:00am 17.8 11.9 3.7 39 6.6 S 24 32 13 17 1022.6 1022.3 0.0
27/09:30am 16.6 10.0 4.0 43 5.9 S 28 35 15 19 1022.6 1022.3 0.0
27/09:00am 15.7 9.2 4.7 48 5.2 S 28 35 15 19 1022.5 1022.2 0.0
27/08:30am 13.9 7.4 4.8 54 4.2 S 28 35 15 19 1022.6 1022.3 0.0
27/08:00am 13.1 7.1 5.5 60 3.6 S 26 35 14 19 1022.3 1022.0 0.0
27/07:30am 12.0 7.2 5.6 65 3.0 S 20 28 11 15 1022.1 1021.8 0.0
27/07:00am 10.9 6.1 5.7 70 2.4 S 20 26 11 14 1021.8 1021.5 0.0
27/06:30am 10.2 5.6 5.6 73 2.1 S 19 26 10 14 1021.7 1021.4 0.0
27/06:00am 9.8 5.2 5.6 75 1.9 S 19 28 10 15 1021.4 1021.1 0.0
27/05:30am 10.0 5.4 5.8 75 1.9 S 19 24 10 13 1021.2 1020.9 0.0
27/05:00am 10.3 5.7 5.7 73 2.1 SSW 19 26 10 14 1021.0 1020.7 0.0
27/04:30am 10.8 5.9 5.3 69 2.5 S 20 30 11 16 1020.8 1020.5 0.0
27/04:00am 11.1 5.6 5.8 70 2.5 S 24 33 13 18 1020.8 1020.5 0.0
27/03:30am 11.3 5.4 6.0 70 2.5 S 26 35 14 19 1020.7 1020.4 0.0
27/03:00am 11.6 6.2 6.5 71 2.4 S 24 35 13 19 1021.1 1020.8 0.0
27/02:30am 11.6 6.4 7.1 74 2.2 S 24 32 13 17 1021.3 1021.0 0.0
27/02:00am 11.9 6.7 7.4 74 2.2 S 24 33 13 18 1021.4 1021.1 0.0
27/01:30am 12.0 6.8 7.3 73 2.3 S 24 35 13 19 1021.8 1021.5 0.0
27/01:00am 12.4 7.7 7.9 74 2.2 S 22 33 12 18 1022.1 1021.8 0.0
27/12:30am 12.8 7.4 8.1 73 2.3 S 26 33 14 18 1022.1 1021.8 0.0
27/12:00am 13.3 8.4 8.6 73 2.4 S 24 37 13 20 1022.2 1021.9 0.0
 
Date/Time
EDT
Temp
°C
App
Temp
°C
Dew
Point
Rel
Hum
%
Delta-T
°C
Wind Press
QNH
hPa
Press
MSL
hPa
Rain
since 9 am
mm
Dir
 
Spd
km/h
Gust
km/h
Spd
kts
Gust
kts
26/11:30pm 13.9 8.8 9.3 74 2.4 S 26 33 14 18 1022.2 1021.9 0.0
26/11:00pm 14.5 9.2 9.9 74 2.4 S 28 39 15 21 1022.1 1021.8 0.0
26/10:30pm 15.3 10.8 10.1 71 2.7 S 24 32 13 17 1022.0 1021.7 0.0
26/10:00pm 15.9 12.2 10.0 68 3.1 S 20 28 11 15 1021.6 1021.3 0.0
26/09:30pm 16.7 12.8 9.4 62 3.8 S 20 28 11 15 1021.3 1021.0 0.0
26/09:00pm 17.4 13.4 9.1 58 4.3 S 20 30 11 16 1020.9 1020.6 0.0
26/08:30pm 18.3 13.5 8.8 54 5.0 S 24 32 13 17 1020.5 1020.2 0.0
26/08:00pm 19.3 14.0 8.6 50 5.6 S 26 37 14 20 1020.2 1019.9 0.0
26/07:30pm 20.3 14.7 8.6 47 6.2 S 28 37 15 20 1019.8 1019.5 0.0
26/07:00pm 21.0 15.0 8.6 45 6.5 S 30 39 16 21 1019.4 1019.1 0.0
26/06:30pm 21.7 15.6 8.2 42 7.1 S 30 39 16 21 1018.8 1018.6 0.0
26/06:00pm 23.0 16.9 8.3 39 7.8 S 30 44 16 24 1018.5 1018.3 0.0
26/05:30pm 22.9 17.0 7.4 37 8.1 S 28 39 15 21 1018.5 1018.3 0.0
26/05:00pm 23.5 17.3 8.0 37 8.2 S 30 41 16 22 1018.7 1018.5 0.0
26/04:30pm 23.7 18.8 6.9 34 8.7 S 22 32 12 17 1018.7 1018.5 0.0
26/04:20pm 23.7 17.6 6.5 33 8.9 SSW 28 46 15 25 1018.7 1018.5 0.0
26/04:00pm 24.1 17.8 5.9 31 9.3 S 28 43 15 23 1018.7 1018.5 0.0
26/03:40pm 24.0 17.8 6.3 32 9.1 SSW 28 46 15 25 1018.8 1018.6 0.0
26/03:30pm 23.2 18.2 6.5 34 8.6 SSW 22 35 12 19 1018.8 1018.6 0.0
26/03:00pm 22.6 17.2 6.4 35 8.3 SSW 24 39 13 21 1019.1 1018.9 0.0
26/02:30pm 22.0 17.9 6.3 36 8.0 S 17 35 9 19 1019.5 1019.2 0.0
26/02:00pm 21.9 16.8 6.2 36 8.0 SW 22 32 12 17 1019.8 1019.5 0.0
26/01:30pm 22.0 18.1 5.4 34 8.3 S 15 28 8 15 1020.0 1019.7 0.0
26/01:00pm 20.6 15.9 5.0 36 7.7 WSW 19 28 10 15 1020.4 1020.1 0.0
26/12:30pm 20.8 16.1 6.0 38 7.4 SSW 20 30 11 16 1020.6 1020.3 0.0
26/12:00pm 19.5 15.3 5.6 40 6.9 SW 17 30 9 16 1020.7 1020.4 0.0
26/11:30am 19.5 15.1 6.6 43 6.5 SSW 19 26 10 14 1021.0 1020.7 0.0
26/11:00am 19.1 14.6 6.2 43 6.4 SW 19 28 10 15 1021.1 1020.8 0.0
26/10:30am 18.3 15.3 6.2 45 6.0 SSW 11 19 6 10 1021.2 1020.9 0.0
26/10:00am 17.3 13.6 6.2 48 5.5 SW 15 26 8 14 1021.0 1020.7 0.0
26/09:30am 16.6 13.1 7.0 53 4.8 S 15 28 8 15 1021.0 1020.7 0.0
26/09:00am 15.7 11.3 7.5 58 4.1 S 20 24 11 13 1021.1 1020.8 0.0
26/08:30am 15.0 11.0 8.3 64 3.4 S 19 22 10 12 1020.9 1020.6 0.0
26/08:00am 13.6 9.8 7.6 67 3.0 S 17 22 9 12 1020.7 1020.4 0.0
26/07:30am 13.0 10.6 8.5 74 2.3 S 11 15 6 8 1020.6 1020.3 0.0

Other Formats:

Comma delimited format used in spreadsheet applications
http://www.bom.gov.au/fwo/IDV60801/IDV60801.94875.axf

JavaScript Object Notation format (JSON) in row-major order
http://www.bom.gov.au/fwo/IDV60801/IDV60801.94875.json